createdAt,value
2018-06-05T00:00:56.400Z,45.37
2018-06-05T00:03:26.277Z,45.67
2018-06-05T00:05:56.233Z,42.10
2018-06-05T00:08:26.146Z,39.47
2018-06-05T00:10:56.085Z,36.10
2018-06-05T00:13:25.757Z,35.00
2018-06-05T00:15:55.678Z,33.50
2018-06-05T00:18:25.512Z,31.40
2018-06-05T00:20:55.061Z,36.60
2018-06-05T00:23:24.911Z,30.43
2018-06-05T00:25:54.851Z,27.70
2018-06-05T00:28:24.664Z,28.87
2018-06-05T00:30:54.304Z,30.53
2018-06-05T00:33:24.497Z,26.43
2018-06-05T00:35:54.203Z,28.30
2018-06-05T00:38:24.106Z,26.23
2018-06-05T00:40:53.890Z,28.50
2018-06-05T00:43:23.667Z,28.90
2018-06-05T00:45:54.124Z,28.40
2018-06-05T00:48:24.065Z,27.33
2018-06-05T00:50:54.068Z,27.40
2018-06-05T00:53:23.711Z,27.60
2018-06-05T00:55:53.470Z,27.17
2018-06-05T00:58:23.183Z,26.63
2018-06-05T01:00:52.965Z,26.53
2018-06-05T01:03:22.985Z,25.67
2018-06-05T01:05:52.803Z,24.77
2018-06-05T01:08:22.675Z,28.43
2018-06-05T01:10:52.761Z,25.33
2018-06-05T01:13:22.335Z,26.10
2018-06-05T01:15:52.073Z,24.87
2018-06-05T01:18:22.079Z,25.50
2018-06-05T01:20:51.835Z,26.27
2018-06-05T01:23:27.959Z,26.83
2018-06-05T01:25:57.551Z,27.60
2018-06-05T01:28:27.220Z,26.37
2018-06-05T01:30:57.074Z,29.20
2018-06-05T01:33:26.784Z,28.70
2018-06-05T01:35:56.602Z,25.63
2018-06-05T01:38:26.617Z,26.27
2018-06-05T01:40:56.548Z,28.55
2018-06-05T01:43:26.342Z,26.00
2018-06-05T01:45:56.871Z,28.33
2018-06-05T01:48:26.808Z,27.80
2018-06-05T01:50:56.578Z,25.70
2018-06-05T01:53:27.449Z,28.63
2018-06-05T01:55:57.360Z,29.17
2018-06-05T01:58:27.102Z,26.30
2018-06-05T02:00:57.015Z,27.80
2018-06-05T02:03:26.695Z,27.43
2018-06-05T02:05:56.360Z,29.77
2018-06-05T02:08:26.319Z,30.23
2018-06-05T02:10:56.117Z,28.03
2018-06-05T02:13:25.851Z,30.07
2018-06-05T02:15:55.749Z,28.43
2018-06-05T02:18:25.501Z,27.90
2018-06-05T02:20:56.846Z,27.73
2018-06-05T02:23:26.552Z,27.83
2018-06-05T02:25:56.423Z,29.07
2018-06-05T02:28:26.461Z,29.30
2018-06-05T02:30:59.661Z,28.07
2018-06-05T02:33:29.594Z,28.13
2018-06-05T02:35:59.424Z,28.50
2018-06-05T02:38:29.400Z,29.20
2018-06-05T02:40:59.197Z,32.00
2018-06-05T02:43:28.968Z,28.00
2018-06-05T02:45:58.948Z,29.10
2018-06-05T02:48:28.652Z,28.80
2018-06-05T02:50:58.440Z,31.50
2018-06-05T02:53:28.235Z,29.57
2018-06-05T02:55:58.279Z,31.77
2018-06-05T02:58:28.292Z,28.63
2018-06-05T03:00:57.876Z,29.93
2018-06-05T03:05:55.557Z,28.33
2018-06-05T03:08:25.323Z,27.23
2018-06-05T03:10:56.420Z,30.20
2018-06-05T03:13:25.979Z,27.67
2018-06-05T03:15:55.967Z,27.60
2018-06-05T03:18:25.789Z,29.77
2018-06-05T03:20:55.889Z,30.93
2018-06-05T03:23:25.612Z,27.13
2018-06-05T03:25:56.536Z,34.97
2018-06-05T03:28:26.295Z,27.57
2018-06-05T03:30:56.559Z,27.37
2018-06-05T03:33:26.632Z,28.23
2018-06-05T03:35:57.346Z,30.83
2018-06-05T03:38:27.276Z,32.17
2018-06-05T03:40:57.200Z,30.33
2018-06-05T03:43:27.032Z,32.10
2018-06-05T03:45:56.959Z,28.57
2018-06-05T03:48:26.799Z,33.90
2018-06-05T03:50:56.568Z,32.17
2018-06-05T03:53:26.433Z,30.73
2018-06-05T03:55:56.285Z,30.70
2018-06-05T03:58:25.945Z,32.37
2018-06-05T04:00:56.126Z,28.83
2018-06-05T04:03:25.839Z,30.13
2018-06-05T04:05:55.651Z,30.73
2018-06-05T04:08:25.479Z,30.23
2018-06-05T04:10:55.182Z,29.73
2018-06-05T04:13:25.199Z,31.63
2018-06-05T04:15:54.893Z,32.17
2018-06-05T04:18:24.690Z,34.07
2018-06-05T04:20:54.575Z,31.63
2018-06-05T04:23:25.287Z,30.53
2018-06-05T04:25:55.492Z,31.10
2018-06-05T04:28:25.427Z,29.80
2018-06-05T04:30:55.463Z,29.97
2018-06-05T04:33:25.098Z,31.20
2018-06-05T04:35:56.081Z,32.37
2018-06-05T04:38:26.178Z,29.83
2018-06-05T04:40:56.370Z,32.70
2018-06-05T04:43:26.569Z,31.37
2018-06-05T04:45:56.630Z,28.80
2018-06-05T04:48:26.613Z,30.13
2018-06-05T04:50:56.531Z,30.37
2018-06-05T04:53:26.522Z,30.27
2018-06-05T04:55:56.387Z,29.13
2018-06-05T04:58:26.064Z,26.20
2018-06-05T05:00:55.833Z,29.17
2018-06-05T05:03:25.836Z,27.03
2018-06-05T05:05:55.496Z,26.77
2018-06-05T05:08:25.580Z,25.80
2018-06-05T05:10:55.650Z,27.33
2018-06-05T05:13:25.498Z,25.53
2018-06-05T05:15:55.390Z,25.57
2018-06-05T05:18:25.233Z,27.80
2018-06-05T05:20:55.023Z,25.17
2018-06-05T05:23:25.082Z,24.07
2018-06-05T05:25:55.462Z,26.90
2018-06-05T05:28:25.304Z,24.80
2018-06-05T05:30:55.308Z,22.87
2018-06-05T05:33:25.100Z,21.70
2018-06-05T05:35:54.940Z,22.90
2018-06-05T05:38:24.826Z,21.50
2018-06-05T05:40:54.571Z,22.43
2018-06-05T05:43:24.611Z,22.13
2018-06-05T05:45:54.313Z,21.93
2018-06-05T05:48:24.235Z,23.07
2018-06-05T05:50:54.237Z,24.17
2018-06-05T05:53:23.974Z,26.20
2018-06-05T05:55:53.894Z,23.10
2018-06-05T05:58:23.585Z,20.97
2018-06-05T06:00:54.258Z,20.77
2018-06-05T06:03:25.226Z,20.13
2018-06-05T06:05:55.971Z,22.90
2018-06-05T06:08:25.867Z,22.83
2018-06-05T06:10:55.853Z,21.70
2018-06-05T06:13:25.902Z,20.50
2018-06-05T06:15:55.651Z,20.27
2018-06-05T06:18:25.457Z,25.53
2018-06-05T06:20:55.546Z,20.90
2018-06-05T06:23:25.387Z,23.37
2018-06-05T06:25:55.663Z,21.00
2018-06-05T06:28:25.698Z,19.40
2018-06-05T06:30:55.517Z,19.13
2018-06-05T06:33:25.356Z,19.37
2018-06-05T06:35:55.191Z,18.03
2018-06-05T06:38:25.249Z,18.57
2018-06-05T06:40:55.930Z,20.73
2018-06-05T06:43:25.631Z,16.47
2018-06-05T06:45:55.532Z,16.83
2018-06-05T06:48:25.371Z,18.50
2018-06-05T06:50:55.376Z,17.00
2018-06-05T06:53:25.173Z,17.07
2018-06-05T06:55:55.115Z,16.87
2018-06-05T06:58:24.717Z,18.20
2018-06-05T07:00:54.550Z,21.93
2018-06-05T07:03:24.449Z,20.20
2018-06-05T07:05:54.250Z,20.30
2018-06-05T07:08:24.100Z,19.87
2018-06-05T07:10:54.159Z,23.77
2018-06-05T07:13:23.912Z,21.93
2018-06-05T07:15:54.692Z,21.90
2018-06-05T07:18:24.552Z,24.13
2018-06-05T07:20:55.353Z,23.20
2018-06-05T07:23:25.829Z,24.90
2018-06-05T07:25:56.017Z,24.43
2018-06-05T07:28:25.893Z,24.83
2018-06-05T07:30:56.250Z,25.70
2018-06-05T07:33:26.270Z,25.30
2018-06-05T07:35:56.090Z,27.40
2018-06-05T07:38:25.903Z,23.27
2018-06-05T07:40:56.022Z,22.93
2018-06-05T07:43:25.630Z,18.97
2018-06-05T07:45:55.522Z,22.07
2018-06-05T07:48:25.383Z,19.07
2018-06-05T07:50:55.089Z,20.13
2018-06-05T07:53:24.875Z,19.57
2018-06-05T07:55:54.547Z,24.03
2018-06-05T07:58:24.290Z,19.70
2018-06-05T08:00:54.051Z,20.47
2018-06-05T08:03:23.942Z,19.03
2018-06-05T08:05:53.780Z,17.97
2018-06-05T08:08:23.392Z,16.27
2018-06-05T08:10:53.221Z,19.33
2018-06-05T08:13:23.033Z,15.90
2018-06-05T08:15:52.696Z,18.63
2018-06-05T08:18:22.685Z,22.50
2018-06-05T08:20:52.468Z,20.43
2018-06-05T08:23:22.375Z,20.30
2018-06-05T08:25:52.529Z,19.50
2018-06-05T08:28:22.521Z,18.63
2018-06-05T08:30:52.580Z,19.20
2018-06-05T08:33:22.556Z,36.77
2018-06-05T08:35:52.369Z,20.07
2018-06-05T08:38:22.057Z,19.87
2018-06-05T08:40:52.174Z,21.20
2018-06-05T08:43:21.944Z,20.67
2018-06-05T08:45:51.594Z,17.53
2018-06-05T08:48:21.474Z,20.20
2018-06-05T08:50:51.369Z,22.13
2018-06-05T08:53:21.895Z,19.50
2018-06-05T08:55:52.626Z,18.53
2018-06-05T08:58:22.349Z,24.73
2018-06-05T09:00:52.137Z,18.40
2018-06-05T09:03:22.081Z,17.33
2018-06-05T09:05:52.019Z,17.73
2018-06-05T09:08:22.028Z,19.80
2018-06-05T09:10:52.250Z,19.20
2018-06-05T09:13:22.161Z,19.70
2018-06-05T09:15:52.010Z,18.50
2018-06-05T09:18:22.014Z,17.97
2018-06-05T09:20:51.965Z,15.73
2018-06-05T09:23:21.739Z,14.70
2018-06-05T09:25:51.540Z,15.23
2018-06-05T09:28:21.467Z,15.37
2018-06-05T09:30:51.430Z,14.87
2018-06-05T09:33:21.138Z,18.43
2018-06-05T09:35:51.394Z,16.77
2018-06-05T09:38:21.310Z,14.37
2018-06-05T09:40:51.035Z,15.30
2018-06-05T09:43:20.627Z,15.27
2018-06-05T09:45:50.786Z,12.27
2018-06-05T09:48:20.618Z,14.03
2018-06-05T09:50:50.735Z,17.05
2018-06-05T09:53:21.275Z,15.67
2018-06-05T09:55:51.714Z,15.17
2018-06-05T09:58:21.916Z,10.33
2018-06-05T10:00:52.170Z,11.27
2018-06-05T10:03:22.737Z,12.70
2018-06-05T10:05:53.160Z,13.38
2018-06-05T10:08:23.393Z,10.97
2018-06-05T10:10:53.828Z,10.57
2018-06-05T10:13:23.876Z,10.70
2018-06-05T10:15:54.155Z,11.67
2018-06-05T10:18:24.716Z,14.67
2018-06-05T10:20:55.097Z,14.17
2018-06-05T10:23:25.517Z,41.43
2018-06-05T10:25:55.659Z,11.57
2018-06-05T10:28:25.928Z,11.87
2018-06-05T10:30:56.388Z,12.77
2018-06-05T10:33:26.521Z,15.20
2018-06-05T10:35:56.763Z,12.77
2018-06-05T10:38:26.854Z,13.20
2018-06-05T10:40:56.920Z,13.03
2018-06-05T10:43:28.087Z,11.97
2018-06-05T10:45:58.299Z,11.83
2018-06-05T10:48:28.508Z,11.70
2018-06-05T10:50:58.748Z,12.93
2018-06-05T10:53:28.860Z,11.23
2018-06-05T10:55:59.108Z,11.07
2018-06-05T10:58:29.130Z,11.77
2018-06-05T11:00:59.613Z,11.57
2018-06-05T11:03:29.884Z,11.43
2018-06-05T11:06:00.049Z,10.80
2018-06-05T11:08:30.282Z,18.23
2018-06-05T11:11:00.483Z,10.70
2018-06-05T11:13:30.869Z,11.70
2018-06-05T11:16:01.049Z,12.00
2018-06-05T11:18:31.318Z,11.47
2018-06-05T11:21:01.803Z,11.50
2018-06-05T11:23:34.871Z,11.90
2018-06-05T11:26:04.744Z,13.70
2018-06-05T11:28:34.618Z,10.77
2018-06-05T11:31:04.500Z,10.73
2018-06-05T11:33:34.212Z,11.53
2018-06-05T11:36:04.751Z,10.57
2018-06-05T11:38:34.566Z,10.43
2018-06-05T11:41:04.556Z,9.83
2018-06-05T11:43:34.425Z,10.53
2018-06-05T11:46:04.215Z,10.43
2018-06-05T11:48:34.339Z,9.43
2018-06-05T11:51:04.190Z,9.57
2018-06-05T11:53:34.050Z,9.80
2018-06-05T11:56:03.848Z,18.93
2018-06-05T11:58:33.810Z,11.20
2018-06-05T12:01:03.783Z,10.30
2018-06-05T12:03:33.725Z,10.33
2018-06-05T12:06:03.632Z,13.00
2018-06-05T12:08:33.404Z,10.13
2018-06-05T12:11:03.646Z,9.67
2018-06-05T12:13:33.486Z,10.47
2018-06-05T12:16:03.287Z,10.77
2018-06-05T12:18:33.020Z,10.87
2018-06-05T12:21:02.817Z,11.43
2018-06-05T12:23:32.490Z,10.87
2018-06-05T12:26:02.300Z,9.27
2018-06-05T12:28:32.194Z,8.97
2018-06-05T12:31:02.049Z,9.67
2018-06-05T12:33:32.019Z,11.28
2018-06-05T12:36:02.656Z,12.60
2018-06-05T12:38:33.076Z,10.03
2018-06-05T12:41:02.764Z,9.33
2018-06-05T12:43:32.815Z,9.00
2018-06-05T12:46:09.496Z,11.28
2018-06-05T12:48:40.384Z,12.00
2018-06-05T12:51:10.307Z,11.08
2018-06-05T12:53:41.377Z,9.73
2018-06-05T12:56:12.136Z,9.03
2018-06-05T12:58:41.799Z,8.40
2018-06-05T13:01:11.481Z,8.70
2018-06-05T13:03:41.271Z,14.67
2018-06-05T13:06:10.935Z,11.43
2018-06-05T13:08:40.846Z,9.20
2018-06-05T13:11:11.090Z,10.17
2018-06-05T13:13:40.893Z,12.70
2018-06-05T13:16:10.937Z,8.43
2018-06-05T13:18:40.600Z,9.77
2018-06-05T13:21:10.388Z,8.37
2018-06-05T13:23:40.203Z,11.97
2018-06-05T13:26:10.141Z,8.53
2018-06-05T13:28:40.107Z,8.87
2018-06-05T13:31:10.077Z,9.93
2018-06-05T13:33:39.843Z,9.30
2018-06-05T13:36:09.502Z,9.37
2018-06-05T13:38:41.509Z,11.30
2018-06-05T13:41:11.345Z,9.80
2018-06-05T13:43:41.745Z,13.37
2018-06-05T13:46:11.410Z,8.87
2018-06-05T13:48:41.267Z,7.37
2018-06-05T13:51:12.282Z,6.70
2018-06-05T13:53:42.201Z,15.10
2018-06-05T13:56:12.415Z,8.13
2018-06-05T13:58:42.215Z,10.72
2018-06-05T14:01:12.252Z,9.28
2018-06-05T14:03:42.046Z,7.67
2018-06-05T14:06:11.984Z,8.48
2018-06-05T14:08:41.709Z,7.12
2018-06-05T14:11:11.514Z,11.00
2018-06-05T14:13:41.206Z,9.33
2018-06-05T14:16:13.060Z,8.68
2018-06-05T14:18:42.858Z,9.90
2018-06-05T14:21:12.850Z,9.60
2018-06-05T14:23:42.882Z,9.75
2018-06-05T14:26:12.760Z,12.18
2018-06-05T14:28:42.522Z,12.18
2018-06-05T14:31:12.533Z,8.28
2018-06-05T14:33:42.385Z,14.07
2018-06-05T14:36:12.285Z,12.55
2018-06-05T14:38:42.105Z,13.62
2018-06-05T14:41:12.327Z,11.48
2018-06-05T14:43:42.320Z,11.53
2018-06-05T14:46:12.171Z,11.17
2018-06-05T14:48:42.088Z,14.03
2018-06-05T14:51:12.060Z,13.93
2018-06-05T14:53:41.880Z,11.33
2018-06-05T14:56:11.738Z,11.63
2018-06-05T14:58:43.065Z,11.17
2018-06-05T15:01:13.160Z,11.60
2018-06-05T15:03:43.087Z,12.37
2018-06-05T15:06:12.832Z,13.43
2018-06-05T15:08:42.664Z,19.43
2018-06-05T15:11:12.628Z,10.70
2018-06-05T15:13:42.359Z,12.03
2018-06-05T15:16:12.362Z,11.10
2018-06-05T15:18:42.173Z,10.30
2018-06-05T15:21:12.220Z,10.80
2018-06-05T15:23:42.233Z,13.13
2018-06-05T15:26:12.124Z,10.30
2018-06-05T15:28:42.201Z,12.90
2018-06-05T15:31:13.186Z,9.97
2018-06-05T15:33:43.163Z,11.87
2018-06-05T15:36:13.125Z,12.17
2018-06-05T15:38:43.245Z,9.97
2018-06-05T15:41:13.056Z,9.93
2018-06-05T15:43:44.119Z,10.13
2018-06-05T15:46:14.160Z,8.65
2018-06-05T15:48:44.041Z,14.68
2018-06-05T15:51:13.923Z,8.90
2018-06-05T15:53:43.813Z,9.48
2018-06-05T15:56:13.824Z,9.10
2018-06-05T15:58:44.118Z,9.20
2018-06-05T16:01:13.963Z,7.60
2018-06-05T16:03:43.814Z,8.50
2018-06-05T16:06:13.564Z,6.97
2018-06-05T16:08:43.296Z,12.35
2018-06-05T16:11:13.136Z,9.18
2018-06-05T16:13:43.969Z,10.23
2018-06-05T16:16:13.938Z,8.75
2018-06-05T16:18:43.924Z,8.68
2018-06-05T16:21:13.900Z,7.12
2018-06-05T16:23:43.721Z,6.83
2018-06-05T16:26:14.693Z,6.42
2018-06-05T16:28:44.509Z,6.87
2018-06-05T16:31:14.316Z,8.83
2018-06-05T16:33:44.185Z,8.45
2018-06-05T16:36:14.239Z,6.67
2018-06-05T16:38:43.976Z,10.10
2018-06-05T16:41:13.852Z,9.73
2018-06-05T16:43:43.778Z,9.90
2018-06-05T16:46:13.429Z,7.40
2018-06-05T16:48:43.257Z,8.63
2018-06-05T16:51:13.324Z,7.20
2018-06-05T16:56:37.755Z,8.10
2018-06-05T16:59:07.808Z,10.85
2018-06-05T17:01:37.665Z,9.10
2018-06-05T17:04:07.708Z,9.63
2018-06-05T17:06:37.509Z,8.83
2018-06-05T17:09:08.780Z,7.83
2018-06-05T17:11:38.749Z,8.43
2018-06-05T17:14:09.330Z,9.13
2018-06-05T17:16:39.029Z,10.05
2018-06-05T17:19:08.950Z,9.63
2018-06-05T17:21:38.885Z,13.22
2018-06-05T17:24:08.603Z,10.88
2018-06-05T17:26:38.992Z,13.58
2018-06-05T17:29:08.936Z,12.80
2018-06-05T17:31:38.884Z,13.10
2018-06-05T17:34:08.796Z,12.87
2018-06-05T17:36:38.446Z,16.17
2018-06-05T17:39:09.860Z,13.73
2018-06-05T17:41:39.798Z,12.93
2018-06-05T17:44:09.709Z,13.87
2018-06-05T17:46:39.628Z,15.03
2018-06-05T17:49:09.844Z,15.47
2018-06-05T17:51:40.067Z,12.20
2018-06-05T17:54:09.744Z,12.77
2018-06-05T17:56:39.665Z,13.13
2018-06-05T17:59:09.607Z,12.60
2018-06-05T18:01:39.457Z,17.30
2018-06-05T18:04:09.440Z,21.27
2018-06-05T18:06:39.460Z,24.00
2018-06-05T18:09:09.859Z,15.53
2018-06-05T18:11:39.454Z,13.33
2018-06-05T18:14:09.401Z,19.47
2018-06-05T18:16:39.202Z,15.27
2018-06-05T18:19:09.401Z,14.00
2018-06-05T18:21:40.491Z,20.77
2018-06-05T18:24:10.485Z,23.60
2018-06-05T18:26:40.346Z,18.90
2018-06-05T18:29:10.462Z,18.30
2018-06-05T18:31:40.493Z,17.70
2018-06-05T18:34:10.445Z,23.07
2018-06-05T18:36:40.281Z,22.00
2018-06-05T18:39:12.631Z,21.90
2018-06-05T18:41:42.419Z,18.87
2018-06-05T18:44:12.255Z,24.50
2018-06-05T18:46:42.224Z,17.40
2018-06-05T18:49:12.284Z,17.80
2018-06-05T18:51:42.092Z,20.77
2018-06-05T18:54:11.984Z,20.23
2018-06-05T18:56:41.956Z,18.70
2018-06-05T18:59:12.136Z,20.47
2018-06-05T19:01:42.108Z,23.03
2018-06-05T19:04:11.976Z,20.87
2018-06-05T19:06:41.707Z,20.73
2018-06-05T19:09:11.807Z,26.73
2018-06-05T19:11:41.559Z,24.07
2018-06-05T19:14:11.501Z,24.20
2018-06-05T19:16:41.391Z,22.67
2018-06-05T19:19:11.195Z,31.70
2018-06-05T19:21:41.257Z,30.73
2018-06-05T19:24:11.255Z,21.20
2018-06-05T19:26:41.154Z,18.80
2018-06-05T19:29:10.930Z,20.27
2018-06-05T19:31:40.778Z,20.23
2018-06-05T19:34:10.789Z,24.33
2018-06-05T19:36:40.750Z,19.77
2018-06-05T19:39:10.954Z,22.37
2018-06-05T19:41:41.028Z,32.23
2018-06-05T19:44:10.960Z,25.83
2018-06-05T19:46:41.027Z,23.13
2018-06-05T19:49:10.657Z,24.37
2018-06-05T19:51:40.636Z,25.43
2018-06-05T19:54:11.873Z,22.37
2018-06-05T19:56:41.792Z,28.33
2018-06-05T19:59:11.695Z,23.47
2018-06-05T20:01:42.119Z,22.93
2018-06-05T20:04:11.975Z,23.53
2018-06-05T20:06:41.773Z,23.50
2018-06-05T20:09:11.759Z,25.43
2018-06-05T20:11:41.792Z,22.00
2018-06-05T20:14:11.579Z,24.13
2018-06-05T20:16:41.641Z,21.37
2018-06-05T20:19:11.365Z,20.13
2018-06-05T20:21:41.301Z,23.23
2018-06-05T20:24:11.352Z,20.67
2018-06-05T20:26:41.337Z,19.97
2018-06-05T20:29:11.247Z,21.93
2018-06-05T20:31:41.208Z,19.83
2018-06-05T20:34:10.922Z,21.80
2018-06-05T20:36:40.904Z,21.20
2018-06-05T20:39:14.355Z,22.50
2018-06-05T20:41:45.282Z,23.83
2018-06-05T20:44:15.094Z,21.43
2018-06-05T20:46:44.763Z,22.37
2018-06-05T20:49:14.736Z,21.27
2018-06-05T20:51:44.703Z,25.03
2018-06-05T20:54:14.687Z,24.30
2018-06-05T20:56:44.416Z,21.00
2018-06-05T20:59:14.255Z,22.13
2018-06-05T21:01:44.204Z,24.17
2018-06-05T21:04:14.171Z,25.53
2018-06-05T21:06:43.924Z,23.17
2018-06-05T21:09:13.745Z,26.25
2018-06-05T21:11:43.562Z,22.90
2018-06-05T21:14:13.376Z,23.90
2018-06-05T21:16:43.321Z,23.42
2018-06-05T21:19:13.308Z,22.50
2018-06-05T21:21:42.984Z,24.20
2018-06-05T21:24:12.931Z,22.80
2018-06-05T21:26:42.588Z,24.17
2018-06-05T21:29:12.668Z,23.10
2018-06-05T21:31:42.801Z,21.63
2018-06-05T21:34:12.750Z,23.57
2018-06-05T21:36:42.539Z,17.67
2018-06-05T21:39:12.407Z,17.50
2018-06-05T21:41:42.249Z,16.23
2018-06-05T21:44:12.892Z,15.83
2018-06-05T21:46:42.748Z,15.50
2018-06-05T21:49:12.655Z,13.63
2018-06-05T21:51:42.493Z,14.33
2018-06-05T21:54:12.844Z,11.10
2018-06-05T21:56:42.658Z,11.90
2018-06-05T21:59:12.462Z,10.83
2018-06-05T22:01:42.591Z,11.10
2018-06-05T22:04:12.238Z,12.13
2018-06-05T22:06:41.918Z,9.13
2018-06-05T22:09:11.880Z,9.27
2018-06-05T22:11:42.448Z,7.60
2018-06-05T22:14:12.005Z,6.87
2018-06-05T22:16:41.926Z,6.73
2018-06-05T22:19:11.679Z,6.73
2018-06-05T22:21:41.465Z,7.58
2018-06-05T22:24:11.521Z,7.63
2018-06-05T22:26:41.998Z,5.53
2018-06-05T22:29:12.039Z,6.80
2018-06-05T22:31:41.983Z,6.67
2018-06-05T22:34:11.791Z,6.17
2018-06-05T22:36:41.630Z,10.47
2018-06-05T22:39:12.043Z,8.10
2018-06-05T22:41:41.760Z,7.07
2018-06-05T22:44:12.604Z,6.53
2018-06-05T22:46:42.452Z,3.97
2018-06-05T22:49:12.247Z,5.53
2018-06-05T22:51:42.088Z,5.13
2018-06-05T22:54:11.648Z,6.20
2018-06-05T22:56:41.257Z,3.43
2018-06-05T22:59:11.068Z,4.67
2018-06-05T23:01:40.908Z,6.83
2018-06-05T23:04:10.443Z,8.63
2018-06-05T23:06:40.482Z,7.33
2018-06-05T23:09:10.591Z,6.80
2018-06-05T23:12:07.091Z,5.30
2018-06-05T23:15:00.765Z,6.53
2018-06-05T23:17:33.824Z,6.70
2018-06-05T23:20:03.585Z,6.17
2018-06-05T23:22:40.074Z,4.33
2018-06-05T23:25:10.047Z,5.87
2018-06-05T23:27:40.970Z,6.53
2018-06-05T23:30:11.066Z,11.17
2018-06-05T23:32:40.743Z,4.60
2018-06-05T23:35:10.550Z,6.87
2018-06-05T23:37:40.464Z,4.83
2018-06-05T23:40:10.333Z,5.70
2018-06-05T23:42:40.116Z,3.40
2018-06-05T23:45:09.926Z,4.60
2018-06-05T23:47:39.624Z,6.60
2018-06-05T23:50:09.070Z,5.27
2018-06-05T23:52:39.037Z,3.47
2018-06-05T23:55:08.649Z,7.17
2018-06-05T23:57:38.520Z,6.10
